Time;durP1;ratioP1;P1;durP2;ratioP2;P2;SDS_P1;SDS_P2;PMS_P1;PMS_P2;Temp;Humidity;BMP_temperature;BMP_pressure;BME280_temperature;BME280_humidity;BME280_pressure;Samples;Min_cycle;Max_cycle;Signal;HPM_P1;HPM_P2
2023/06/24 00:02:17;;;;;;;0.00;0.00;;;16.50;99.90;;;;;;5009017;28;20081;-80
2023/06/24 00:04:46;;;;;;;0.00;0.00;;;16.40;99.90;;;;;;5015474;28;20026;-79
2023/06/24 00:07:12;;;;;;;0.00;0.00;;;16.40;99.90;;;;;;5015160;28;20046;-80
2023/06/24 00:09:37;;;;;;;0.20;0.10;;;16.30;99.90;;;;;;5001702;28;20105;-80
2023/06/24 00:12:04;;;;;;;0.00;0.00;;;16.20;99.90;;;;;;5028622;28;20084;-80
2023/06/24 00:14:29;;;;;;;0.00;0.00;;;16.20;99.90;;;;;;5022358;28;20022;-79
2023/06/24 00:16:56;;;;;;;0.00;0.00;;;16.10;99.90;;;;;;5033481;28;20060;-80
2023/06/24 00:19:24;;;;;;;0.00;0.00;;;16.10;99.90;;;;;;5024329;28;20045;-80
2023/06/24 00:21:51;;;;;;;0.22;0.15;;;16.10;99.90;;;;;;5025885;28;20051;-80
2023/06/24 00:24:25;;;;;;;0.03;0.00;;;16.00;99.90;;;;;;5019305;28;20053;-80
2023/06/24 00:26:53;;;;;;;0.00;0.00;;;16.00;99.90;;;;;;5007883;28;20049;-78
2023/06/24 00:29:19;;;;;;;0.00;0.00;;;16.00;99.90;;;;;;5025783;28;20042;-80
2023/06/24 00:31:44;;;;;;;0.00;0.00;;;16.00;99.90;;;;;;5020753;28;20022;-79
2023/06/24 00:34:14;;;;;;;0.00;0.00;;;15.90;99.90;;;;;;5019516;28;20125;-80
2023/06/24 00:36:40;;;;;;;0.00;0.00;;;15.90;99.90;;;;;;5021914;28;20100;-80
2023/06/24 00:39:06;;;;;;;0.03;0.00;;;15.80;99.90;;;;;;5021855;28;20113;-79
2023/06/24 00:41:34;;;;;;;0.00;0.00;;;15.80;99.90;;;;;;5014113;28;20050;-80
2023/06/24 00:44:00;;;;;;;0.00;0.00;;;15.80;99.90;;;;;;5020292;28;20110;-81
2023/06/24 00:46:27;;;;;;;0.00;0.00;;;15.80;99.90;;;;;;5017076;28;20030;-80
2023/06/24 00:48:55;;;;;;;0.10;0.10;;;15.80;99.90;;;;;;5005111;28;20026;-81
2023/06/24 00:51:29;;;;;;;0.00;0.00;;;15.80;99.90;;;;;;5024453;28;20080;-79
2023/06/24 00:53:55;;;;;;;0.00;0.00;;;15.80;99.90;;;;;;5002380;28;20025;-81
2023/06/24 00:56:33;;;;;;;0.00;0.00;;;15.80;99.90;;;;;;5002645;28;20068;-80
2023/06/24 00:59:02;;;;;;;0.00;0.00;;;15.80;99.90;;;;;;5022427;28;20038;-80
2023/06/24 01:01:37;;;;;;;0.00;0.00;;;15.70;99.90;;;;;;4982311;28;20030;-81
2023/06/24 01:04:03;;;;;;;0.10;0.10;;;15.70;99.90;;;;;;5006481;28;20073;-81
2023/06/24 01:06:30;;;;;;;0.10;0.08;;;15.60;99.90;;;;;;5023781;28;20043;-81
2023/06/24 01:09:00;;;;;;;0.03;0.03;;;15.60;99.90;;;;;;5024833;28;20242;-81
2023/06/24 01:11:30;;;;;;;0.15;0.13;;;15.50;99.90;;;;;;4994694;28;20050;-81
2023/06/24 01:13:56;;;;;;;0.00;0.00;;;15.50;99.90;;;;;;5024450;28;20107;-80
2023/06/24 01:17:01;;;;;;;0.00;0.00;;;15.40;99.90;;;;;;5024900;28;20041;-81
2023/06/24 01:19:33;;;;;;;0.70;0.55;;;15.40;99.90;;;;;;5003983;28;20061;-80
2023/06/24 01:22:13;;;;;;;0.10;0.08;;;15.40;99.90;;;;;;5003519;28;20061;-81
2023/06/24 01:25:08;;;;;;;0.30;0.05;;;15.30;99.90;;;;;;5004257;28;20042;-81
2023/06/24 01:27:59;;;;;;;0.00;0.00;;;15.30;99.90;;;;;;5015564;28;20718;-81
2023/06/24 01:31:00;;;;;;;0.05;0.03;;;15.30;99.90;;;;;;5010777;28;20045;-81
2023/06/24 01:33:49;;;;;;;0.52;0.40;;;15.20;99.90;;;;;;4993501;28;20053;-81
2023/06/24 01:36:18;;;;;;;0.10;0.10;;;15.20;99.90;;;;;;5008858;28;20050;-81
2023/06/24 01:38:48;;;;;;;0.10;0.10;;;15.20;99.90;;;;;;4997480;28;20042;-81
2023/06/24 01:41:18;;;;;;;0.13;0.10;;;15.10;99.90;;;;;;5015388;28;20044;-81
2023/06/24 01:43:45;;;;;;;0.17;0.10;;;15.10;99.90;;;;;;4999605;28;20073;-81
2023/06/24 01:46:13;;;;;;;0.40;0.20;;;15.10;99.90;;;;;;5009387;28;20042;-82
2023/06/24 01:48:44;;;;;;;0.00;0.00;;;15.00;99.90;;;;;;5012179;28;20117;-81
2023/06/24 01:51:15;;;;;;;0.10;0.00;;;15.00;99.90;;;;;;5008395;28;20034;-81
2023/06/24 01:53:48;;;;;;;0.57;0.20;;;15.00;99.90;;;;;;5008158;28;20053;-81
2023/06/24 01:56:15;;;;;;;0.10;0.00;;;15.00;99.90;;;;;;5022109;28;20046;-82
2023/06/24 01:58:43;;;;;;;0.20;0.10;;;14.90;99.90;;;;;;5027246;28;20044;-82
2023/06/24 02:01:10;;;;;;;0.00;0.00;;;14.90;99.90;;;;;;5000840;28;20037;-81
2023/06/24 02:03:36;;;;;;;0.00;0.00;;;14.90;99.90;;;;;;5026058;28;20044;-81
2023/06/24 02:06:04;;;;;;;0.00;0.00;;;14.90;99.90;;;;;;5025594;28;20081;-81
2023/06/24 02:08:33;;;;;;;0.00;0.00;;;14.80;99.90;;;;;;5029679;28;20025;-81
2023/06/24 02:11:01;;;;;;;0.00;0.00;;;14.80;99.90;;;;;;5029551;28;20048;-82
2023/06/24 02:13:31;;;;;;;0.30;0.20;;;14.80;99.90;;;;;;5014852;28;20030;-82
2023/06/24 02:15:59;;;;;;;0.10;0.00;;;14.70;99.90;;;;;;5023633;28;20042;-82
2023/06/24 02:18:27;;;;;;;0.10;0.00;;;14.70;99.90;;;;;;5031554;28;20049;-81
2023/06/24 02:20:54;;;;;;;0.00;0.00;;;14.70;99.90;;;;;;5001019;28;20085;-81
2023/06/24 02:23:22;;;;;;;0.00;0.00;;;14.70;99.90;;;;;;5026537;28;20037;-81
2023/06/24 02:25:49;;;;;;;0.10;0.10;;;14.70;99.90;;;;;;5034677;28;20037;-81
2023/06/24 02:28:15;;;;;;;0.65;0.10;;;14.60;99.90;;;;;;5042846;28;20060;-81
2023/06/24 02:30:43;;;;;;;0.00;0.00;;;14.70;99.90;;;;;;5005429;28;20022;-80
2023/06/24 02:33:11;;;;;;;0.15;0.15;;;14.60;99.90;;;;;;5025013;28;20045;-81
2023/06/24 02:35:38;;;;;;;0.00;0.00;;;14.60;99.90;;;;;;5028874;28;20049;-81
2023/06/24 02:38:04;;;;;;;0.10;0.00;;;14.60;99.90;;;;;;5021867;28;20030;-81
2023/06/24 02:40:30;;;;;;;0.00;0.00;;;14.60;99.90;;;;;;5002998;28;20062;-82
2023/06/24 02:42:57;;;;;;;0.00;0.00;;;14.60;99.90;;;;;;5012067;28;20105;-82
2023/06/24 02:45:23;;;;;;;0.22;0.17;;;14.60;99.90;;;;;;5011502;28;20021;-82
2023/06/24 02:47:51;;;;;;;0.10;0.00;;;14.60;99.90;;;;;;5004524;28;20029;-82
2023/06/24 02:50:17;;;;;;;0.00;0.00;;;14.60;99.90;;;;;;5024275;28;20046;-82
2023/06/24 02:52:46;;;;;;;0.00;0.00;;;14.60;99.90;;;;;;5001930;28;20053;-82
2023/06/24 02:55:15;;;;;;;0.00;0.00;;;14.60;99.90;;;;;;5023938;28;20140;-82
2023/06/24 02:57:42;;;;;;;0.00;0.00;;;14.60;99.90;;;;;;5012599;28;20105;-82
2023/06/24 03:00:14;;;;;;;0.25;0.25;;;14.50;99.90;;;;;;4997449;28;20103;-82
2023/06/24 03:02:44;;;;;;;0.00;0.00;;;14.60;99.90;;;;;;4997865;28;20045;-82
2023/06/24 03:05:10;;;;;;;0.03;0.00;;;14.50;99.90;;;;;;5021039;28;20065;-82
2023/06/24 03:07:38;;;;;;;0.05;0.05;;;14.50;99.90;;;;;;5021190;28;20049;-82
2023/06/24 03:10:05;;;;;;;0.00;0.00;;;14.50;99.90;;;;;;5004860;28;20032;-82
2023/06/24 03:12:32;;;;;;;0.00;0.00;;;14.40;99.90;;;;;;5006160;28;20068;-82
2023/06/24 03:14:57;;;;;;;0.00;0.00;;;14.50;99.90;;;;;;5015201;28;20040;-81
2023/06/24 03:17:24;;;;;;;0.00;0.00;;;14.50;99.90;;;;;;5017990;28;20038;-82
2023/06/24 03:19:50;;;;;;;0.00;0.00;;;14.40;99.90;;;;;;5016232;28;20513;-81
2023/06/24 03:22:17;;;;;;;0.10;0.00;;;14.40;99.90;;;;;;4999962;28;20049;-81
2023/06/24 03:24:44;;;;;;;0.43;0.00;;;14.40;99.90;;;;;;4995765;28;20060;-81
2023/06/24 03:27:10;;;;;;;0.00;0.00;;;14.40;99.90;;;;;;4984534;28;20037;-81
2023/06/24 03:29:36;;;;;;;0.20;0.10;;;14.40;99.90;;;;;;5003616;28;20124;-81
2023/06/24 03:32:02;;;;;;;0.08;0.00;;;14.40;99.90;;;;;;4989799;28;20054;-81
2023/06/24 03:34:28;;;;;;;0.00;0.00;;;14.40;99.90;;;;;;5008671;28;20045;-81
2023/06/24 03:36:54;;;;;;;0.22;0.20;;;14.40;99.90;;;;;;4978461;28;20389;-81
2023/06/24 03:39:21;;;;;;;0.10;0.10;;;14.30;99.90;;;;;;5007352;28;20517;-81
2023/06/24 03:41:47;;;;;;;0.10;0.00;;;14.40;99.90;;;;;;5001141;28;20050;-81
2023/06/24 03:44:16;;;;;;;0.00;0.00;;;14.40;99.90;;;;;;4989520;28;20064;-81
2023/06/24 03:46:41;;;;;;;0.00;0.00;;;14.40;99.90;;;;;;4986644;28;20041;-81
2023/06/24 03:49:08;;;;;;;0.10;0.10;;;14.40;99.90;;;;;;5008575;28;20580;-81
2023/06/24 03:51:34;;;;;;;0.00;0.00;;;14.40;99.90;;;;;;4988831;28;20100;-81
2023/06/24 03:53:59;;;;;;;0.00;0.00;;;14.40;99.90;;;;;;4997110;28;20046;-81
2023/06/24 03:56:25;;;;;;;0.00;0.00;;;14.40;99.90;;;;;;4989472;28;20691;-80
2023/06/24 03:58:51;;;;;;;0.00;0.00;;;14.50;99.90;;;;;;4980177;28;20045;-81
2023/06/24 04:01:19;;;;;;;0.03;0.03;;;14.50;99.90;;;;;;4987630;28;20393;-81
2023/06/24 04:03:46;;;;;;;0.00;0.00;;;14.60;99.90;;;;;;5008471;28;20060;-81
2023/06/24 04:06:12;;;;;;;0.08;0.08;;;14.60;99.90;;;;;;5003025;28;20124;-81
2023/06/24 04:08:39;;;;;;;0.00;0.00;;;14.70;99.90;;;;;;5005778;28;20176;-81
2023/06/24 04:11:06;;;;;;;0.00;0.00;;;14.70;99.90;;;;;;5001213;28;20045;-81
2023/06/24 04:13:32;;;;;;;0.00;0.00;;;14.80;99.90;;;;;;4987513;28;20052;-81
2023/06/24 04:15:58;;;;;;;0.20;0.20;;;14.80;99.90;;;;;;4989551;28;20042;-80
2023/06/24 04:18:24;;;;;;;0.00;0.00;;;15.00;99.90;;;;;;5001560;28;20466;-81
2023/06/24 04:20:50;;;;;;;0.00;0.00;;;15.00;99.90;;;;;;4977472;28;20054;-81
2023/06/24 04:23:16;;;;;;;0.00;0.00;;;15.10;99.90;;;;;;4987871;28;20086;-81
2023/06/24 04:25:42;;;;;;;0.00;0.00;;;15.20;99.90;;;;;;4987684;28;20046;-81
2023/06/24 04:28:08;;;;;;;0.00;0.00;;;15.40;99.90;;;;;;4999475;28;20042;-80
2023/06/24 04:30:38;;;;;;;0.00;0.00;;;15.40;99.90;;;;;;4989081;28;20442;-80
2023/06/24 04:33:04;;;;;;;0.10;0.10;;;15.50;99.90;;;;;;4992051;28;20043;-80
2023/06/24 04:35:30;;;;;;;0.10;0.10;;;15.60;99.90;;;;;;4996661;28;20042;-82
2023/06/24 04:37:56;;;;;;;0.03;0.00;;;15.80;99.90;;;;;;5006442;28;20132;-80
2023/06/24 04:40:22;;;;;;;0.38;0.08;;;15.80;99.90;;;;;;5024260;28;20093;-81
2023/06/24 04:42:48;;;;;;;0.63;0.20;;;16.00;99.90;;;;;;5013712;28;20043;-82
2023/06/24 04:45:17;;;;;;;0.57;0.03;;;16.10;99.90;;;;;;5016837;28;20046;-81
2023/06/24 04:47:45;;;;;;;0.03;0.03;;;16.10;99.90;;;;;;5017453;28;20019;-81
2023/06/24 04:50:11;;;;;;;0.10;0.10;;;16.20;99.90;;;;;;5025104;28;20038;-81
2023/06/24 04:52:39;;;;;;;0.10;0.10;;;16.30;99.90;;;;;;5020724;28;20053;-81
2023/06/24 04:55:05;;;;;;;0.00;0.00;;;16.40;99.90;;;;;;5020028;28;20081;-82
2023/06/24 04:57:32;;;;;;;0.30;0.10;;;16.60;99.90;;;;;;5020993;28;20057;-81
2023/06/24 04:59:58;;;;;;;0.25;0.00;;;16.70;99.90;;;;;;5028503;28;20046;-81
2023/06/24 05:02:25;;;;;;;0.25;0.10;;;17.00;99.90;;;;;;5009200;28;20070;-81
2023/06/24 05:04:52;;;;;;;0.00;0.00;;;17.60;99.90;;;;;;5003303;28;20043;-82
2023/06/24 05:07:18;;;;;;;0.17;0.00;;;18.10;99.90;;;;;;5004313;28;20093;-81
2023/06/24 05:09:47;;;;;;;0.00;0.00;;;18.60;99.90;;;;;;5001122;28;20046;-79
2023/06/24 05:12:16;;;;;;;0.05;0.03;;;19.00;99.90;;;;;;4998885;28;20042;-80
2023/06/24 05:14:42;;;;;;;0.30;0.15;;;19.10;99.90;;;;;;5016646;28;20042;-81
2023/06/24 05:17:08;;;;;;;0.15;0.10;;;19.00;99.90;;;;;;5019640;28;20049;-80
2023/06/24 05:19:37;;;;;;;0.10;0.03;;;19.10;99.90;;;;;;5000906;28;20065;-81
2023/06/24 05:22:03;;;;;;;0.20;0.10;;;19.00;99.90;;;;;;5003877;28;20110;-81
2023/06/24 05:24:29;;;;;;;0.08;0.00;;;18.90;99.90;;;;;;5011655;28;20320;-79
2023/06/24 05:26:54;;;;;;;0.10;0.08;;;18.90;99.90;;;;;;5020006;28;20078;-82
2023/06/24 05:29:20;;;;;;;0.35;0.20;;;18.90;99.90;;;;;;5001883;28;20389;-79
2023/06/24 05:31:49;;;;;;;0.43;0.40;;;18.80;99.90;;;;;;5014327;28;20487;-81
2023/06/24 05:34:14;;;;;;;1.92;0.57;;;18.80;99.90;;;;;;4983648;28;20038;-81
2023/06/24 05:36:40;;;;;;;0.10;0.00;;;18.80;99.90;;;;;;5003348;28;20037;-81
2023/06/24 05:39:07;;;;;;;0.10;0.08;;;18.80;99.90;;;;;;5001348;28;20379;-81
2023/06/24 05:41:34;;;;;;;0.63;0.30;;;18.90;99.90;;;;;;4989065;28;20042;-81
2023/06/24 05:44:04;;;;;;;0.10;0.08;;;18.90;99.90;;;;;;5022881;28;20056;-81
2023/06/24 05:46:30;;;;;;;0.73;0.00;;;19.00;99.90;;;;;;5028027;28;20056;-81
2023/06/24 05:48:56;;;;;;;0.20;0.10;;;19.10;99.90;;;;;;5006184;28;20037;-81
2023/06/24 05:51:22;;;;;;;0.38;0.20;;;19.20;99.90;;;;;;5031897;28;20132;-82
2023/06/24 05:53:48;;;;;;;0.43;0.20;;;19.30;99.90;;;;;;5025451;28;20034;-79
2023/06/24 05:56:17;;;;;;;0.20;0.20;;;19.40;99.90;;;;;;5006640;28;20049;-81
2023/06/24 05:58:52;;;;;;;0.40;0.28;;;19.40;99.90;;;;;;4997649;28;20034;-79
2023/06/24 06:01:18;;;;;;;0.65;0.20;;;19.60;99.90;;;;;;5018730;28;20046;-81
2023/06/24 06:03:47;;;;;;;0.20;0.10;;;19.70;99.90;;;;;;5003182;28;20065;-79
2023/06/24 06:06:12;;;;;;;0.20;0.10;;;19.90;99.90;;;;;;5010301;28;20052;-79
2023/06/24 06:08:44;;;;;;;0.20;0.20;;;20.00;99.90;;;;;;4999617;28;20042;-80
2023/06/24 06:11:10;;;;;;;0.38;0.32;;;20.10;99.90;;;;;;5024115;28;20033;-79
2023/06/24 06:13:36;;;;;;;0.20;0.20;;;20.30;99.90;;;;;;5019779;28;20096;-79
2023/06/24 06:16:02;;;;;;;0.30;0.20;;;20.40;99.90;;;;;;5024099;28;20041;-80
2023/06/24 06:18:28;;;;;;;0.52;0.45;;;20.50;99.90;;;;;;5002526;28;20049;-80
2023/06/24 06:20:53;;;;;;;0.32;0.20;;;20.60;99.90;;;;;;5005602;28;20054;-79
2023/06/24 06:23:20;;;;;;;0.35;0.30;;;20.70;99.90;;;;;;5002621;28;20042;-79
2023/06/24 06:25:46;;;;;;;0.00;0.00;;;20.90;99.90;;;;;;5022276;28;20053;-80
2023/06/24 06:28:12;;;;;;;0.20;0.15;;;21.00;99.90;;;;;;5017330;28;20059;-80
2023/06/24 06:30:38;;;;;;;0.32;0.20;;;21.10;99.90;;;;;;5019573;28;20101;-82
2023/06/24 06:33:04;;;;;;;0.10;0.10;;;21.20;99.90;;;;;;5003173;28;20064;-79
2023/06/24 06:35:30;;;;;;;0.10;0.10;;;21.40;99.90;;;;;;5021638;28;20042;-80
2023/06/24 06:37:57;;;;;;;0.10;0.10;;;21.50;99.90;;;;;;5016914;28;20065;-79
2023/06/24 06:40:23;;;;;;;0.03;0.00;;;21.60;99.90;;;;;;5019552;28;20073;-80
2023/06/24 06:42:49;;;;;;;0.20;0.17;;;21.80;99.90;;;;;;5004290;28;20050;-81
2023/06/24 06:45:15;;;;;;;0.10;0.00;;;21.90;99.90;;;;;;5018660;28;20093;-80
2023/06/24 06:47:41;;;;;;;0.03;0.00;;;22.00;99.90;;;;;;5019431;28;20038;-82
2023/06/24 06:50:10;;;;;;;1.10;0.68;;;22.10;99.90;;;;;;5010241;28;20121;-82
2023/06/24 06:52:36;;;;;;;0.10;0.05;;;22.20;99.90;;;;;;5022170;28;20068;-80
2023/06/24 06:55:02;;;;;;;0.20;0.13;;;22.30;99.90;;;;;;5006714;28;20042;-79
2023/06/24 06:57:28;;;;;;;0.13;0.10;;;22.40;99.90;;;;;;5008561;28;20034;-80
2023/06/24 06:59:53;;;;;;;0.10;0.10;;;22.40;99.90;;;;;;5017716;28;20042;-80
2023/06/24 07:02:19;;;;;;;0.30;0.20;;;22.60;99.90;;;;;;5001545;28;20052;-80
2023/06/24 07:04:47;;;;;;;0.00;0.00;;;22.70;99.90;;;;;;4995640;28;20057;-80
2023/06/24 07:07:15;;;;;;;0.00;0.00;;;22.90;99.90;;;;;;5008906;28;20051;-80
2023/06/24 07:09:41;;;;;;;0.00;0.00;;;23.00;99.90;;;;;;5014808;28;20041;-80
2023/06/24 07:12:07;;;;;;;0.10;0.10;;;23.10;99.90;;;;;;5016119;28;20591;-79
2023/06/24 07:14:33;;;;;;;0.40;0.40;;;23.20;99.90;;;;;;5014411;28;20057;-80
2023/06/24 07:16:59;;;;;;;0.20;0.10;;;23.30;99.90;;;;;;5009642;28;20042;-80
2023/06/24 07:19:25;;;;;;;0.98;0.13;;;23.40;99.90;;;;;;5010757;28;20038;-80
2023/06/24 07:21:51;;;;;;;0.20;0.20;;;23.60;99.90;;;;;;5012484;28;20422;-81
2023/06/24 07:24:17;;;;;;;0.20;0.10;;;23.70;99.90;;;;;;5009381;28;20106;-83
2023/06/24 07:26:46;;;;;;;0.30;0.13;;;23.90;99.90;;;;;;4996361;28;20081;-81
2023/06/24 07:29:11;;;;;;;0.10;0.10;;;24.10;99.90;;;;;;4990958;28;20072;-81
2023/06/24 07:31:37;;;;;;;0.15;0.13;;;24.30;99.90;;;;;;5006770;28;20085;-81
2023/06/24 07:34:04;;;;;;;0.73;0.68;;;24.40;99.90;;;;;;5007581;28;20050;-81
2023/06/24 07:36:30;;;;;;;0.20;0.20;;;24.40;99.90;;;;;;5000281;28;20042;-81
2023/06/24 07:38:56;;;;;;;0.10;0.10;;;24.40;99.90;;;;;;4989972;28;20098;-81
2023/06/24 07:41:22;;;;;;;0.10;0.00;;;24.50;99.90;;;;;;4988187;28;20085;-81
2023/06/24 07:43:47;;;;;;;0.20;0.08;;;24.50;99.90;;;;;;5008578;28;20088;-81
2023/06/24 07:46:17;;;;;;;0.10;0.10;;;24.50;99.90;;;;;;4992709;28;20426;-81
2023/06/24 07:48:46;;;;;;;0.80;0.20;;;24.60;99.90;;;;;;4998546;28;20089;-81
2023/06/24 07:51:12;;;;;;;0.00;0.00;;;24.60;99.90;;;;;;5009550;28;20049;-82
2023/06/24 07:53:38;;;;;;;0.77;0.22;;;24.70;99.90;;;;;;4986700;28;20119;-81
2023/06/24 07:56:03;;;;;;;0.15;0.00;;;24.80;99.90;;;;;;5006546;28;20044;-81
2023/06/24 07:58:29;;;;;;;0.08;0.08;;;24.80;99.90;;;;;;5008689;28;20051;-81
2023/06/24 08:00:55;;;;;;;0.00;0.00;;;24.80;99.90;;;;;;5010526;28;20054;-81
2023/06/24 08:03:22;;;;;;;0.20;0.20;;;24.90;99.90;;;;;;4987632;28;20044;-81
2023/06/24 08:05:49;;;;;;;0.00;0.00;;;25.00;99.90;;;;;;5011338;28;20052;-81
2023/06/24 08:08:15;;;;;;;0.17;0.00;;;25.00;99.90;;;;;;5010726;28;20117;-82
2023/06/24 08:10:41;;;;;;;0.10;0.10;;;25.10;99.90;;;;;;5002691;28;20513;-81
2023/06/24 08:13:09;;;;;;;0.00;0.00;;;25.20;99.90;;;;;;5001905;28;20514;-82
2023/06/24 08:15:35;;;;;;;0.32;0.00;;;25.50;99.90;;;;;;4986418;28;20053;-81
2023/06/24 08:18:00;;;;;;;0.10;0.05;;;25.50;99.90;;;;;;5007940;28;20035;-81
2023/06/24 08:20:26;;;;;;;0.03;0.03;;;25.60;99.90;;;;;;4987506;28;20061;-81
2023/06/24 08:22:52;;;;;;;0.10;0.10;;;25.70;99.90;;;;;;4999396;28;20058;-81
2023/06/24 08:25:18;;;;;;;0.00;0.00;;;25.90;99.90;;;;;;5006817;28;20107;-82
2023/06/24 08:27:47;;;;;;;0.43;0.30;;;25.90;99.90;;;;;;5000371;28;20042;-81
2023/06/24 08:30:17;;;;;;;0.00;0.00;;;26.10;99.90;;;;;;4993060;28;20029;-81
2023/06/24 08:32:47;;;;;;;0.35;0.03;;;26.10;99.90;;;;;;5008202;28;20499;-82
2023/06/24 08:35:12;;;;;;;0.00;0.00;;;26.30;99.90;;;;;;4999627;28;20041;-82
2023/06/24 08:37:38;;;;;;;0.00;0.00;;;26.40;98.50;;;;;;5011764;28;20038;-81
2023/06/24 08:40:05;;;;;;;0.17;0.10;;;26.50;93.60;;;;;;4993996;28;20069;-82
2023/06/24 08:42:31;;;;;;;0.15;0.00;;;26.60;99.90;;;;;;5014811;28;20076;-81
2023/06/24 08:44:56;;;;;;;0.85;0.10;;;26.70;94.70;;;;;;4999910;28;20022;-81
2023/06/24 08:47:24;;;;;;;0.32;0.00;;;26.80;96.70;;;;;;5016805;28;20117;-81
2023/06/24 08:50:03;;;;;;;0.00;0.00;;;27.20;96.10;;;;;;4981782;28;20125;-81
2023/06/24 08:52:30;;;;;;;0.00;0.00;;;27.50;98.80;;;;;;4993466;28;20069;-81
2023/06/24 08:54:59;;;;;;;0.00;0.00;;;27.90;99.10;;;;;;5016908;28;20212;-81
2023/06/24 08:57:24;;;;;;;0.10;0.00;;;28.00;90.50;;;;;;4999405;28;20044;-81
2023/06/24 08:59:50;;;;;;;0.10;0.10;;;27.80;93.20;;;;;;5027262;28;20041;-81
2023/06/24 09:02:16;;;;;;;0.00;0.00;;;27.70;86.60;;;;;;5002794;28;20030;-81
2023/06/24 09:04:42;;;;;;;0.28;0.00;;;27.70;90.40;;;;;;5016769;28;20053;-82
2023/06/24 09:07:08;;;;;;;0.63;0.20;;;27.70;90.50;;;;;;5001278;28;20107;-81
2023/06/24 09:09:45;;;;;;;0.00;0.00;;;27.70;92.30;;;;;;5015524;28;20026;-81
2023/06/24 09:12:12;;;;;;;0.20;0.10;;;27.90;91.70;;;;;;4997232;28;20076;-81
2023/06/24 09:14:40;;;;;;;0.03;0.00;;;28.20;90.90;;;;;;5018525;28;20037;-81
2023/06/24 09:17:06;;;;;;;0.00;0.00;;;28.50;93.00;;;;;;5024196;28;20041;-81
2023/06/24 09:19:36;;;;;;;0.00;0.00;;;28.60;86.00;;;;;;5016214;28;20098;-81
2023/06/24 09:22:03;;;;;;;0.00;0.00;;;28.60;78.30;;;;;;5014862;28;20034;-81
2023/06/24 09:24:35;;;;;;;0.10;0.10;;;28.60;78.00;;;;;;5026578;28;20057;-81
2023/06/24 09:27:03;;;;;;;0.00;0.00;;;28.70;77.20;;;;;;5009158;28;20150;-81
2023/06/24 09:29:32;;;;;;;0.10;0.00;;;28.70;73.30;;;;;;4996597;28;20023;-81
2023/06/24 09:31:59;;;;;;;0.00;0.00;;;28.60;70.00;;;;;;5013053;28;20085;-81
2023/06/24 09:34:26;;;;;;;0.10;0.00;;;28.60;73.80;;;;;;5021879;28;20031;-81
2023/06/24 09:36:53;;;;;;;0.17;0.10;;;28.70;72.80;;;;;;4999154;28;20047;-82
2023/06/24 09:39:28;;;;;;;0.05;0.00;;;28.90;74.40;;;;;;4992139;28;20042;-82
2023/06/24 09:41:57;;;;;;;0.10;0.10;;;29.10;78.70;;;;;;5000131;28;20125;-81
2023/06/24 09:44:23;;;;;;;0.17;0.10;;;29.20;77.90;;;;;;5000188;28;20080;-81
2023/06/24 09:46:49;;;;;;;0.17;0.03;;;29.30;78.50;;;;;;4990900;28;20074;-82
2023/06/24 09:49:15;;;;;;;0.00;0.00;;;29.40;74.90;;;;;;5005912;28;20071;-81
2023/06/24 09:51:45;;;;;;;0.10;0.10;;;29.50;65.80;;;;;;4996765;28;20034;-82
2023/06/24 09:54:14;;;;;;;0.03;0.00;;;29.40;71.50;;;;;;4983379;28;20060;-81
2023/06/24 09:56:48;;;;;;;0.20;0.00;;;29.50;67.10;;;;;;5012993;28;20033;-81
2023/06/24 09:59:24;;;;;;;0.38;0.20;;;29.50;70.20;;;;;;5015913;28;20482;-80
2023/06/24 10:01:53;;;;;;;0.10;0.10;;;29.50;66.20;;;;;;5021290;28;20082;-80
2023/06/24 10:04:21;;;;;;;0.00;0.00;;;29.60;68.10;;;;;;5024201;28;20459;-80
2023/06/24 10:06:48;;;;;;;0.15;0.00;;;29.70;68.00;;;;;;5029001;28;20038;-81
2023/06/24 10:09:16;;;;;;;0.00;0.00;;;29.90;64.60;;;;;;5004995;28;20049;-80
2023/06/24 10:11:46;;;;;;;0.05;0.00;;;29.90;66.80;;;;;;5020002;28;20042;-80
2023/06/24 10:14:12;;;;;;;0.10;0.00;;;29.80;63.30;;;;;;5020995;28;20045;-79
2023/06/24 10:16:38;;;;;;;0.10;0.00;;;29.80;62.10;;;;;;4987293;28;20046;-79
2023/06/24 10:19:05;;;;;;;0.10;0.10;;;29.90;63.40;;;;;;5005092;28;20064;-79
2023/06/24 10:22:07;;;;;;;0.00;0.00;;;29.90;63.20;;;;;;5006888;28;20140;-79
2023/06/24 10:24:39;;;;;;;0.10;0.10;;;29.90;58.70;;;;;;4981935;28;20063;-81
2023/06/24 10:27:15;;;;;;;0.10;0.08;;;29.90;62.80;;;;;;4977661;28;20043;-81
2023/06/24 10:29:46;;;;;;;0.28;0.10;;;29.70;58.20;;;;;;4993644;28;20042;-81
2023/06/24 10:32:12;;;;;;;0.20;0.10;;;29.70;59.90;;;;;;4990416;28;20078;-81
2023/06/24 10:34:47;;;;;;;0.35;0.10;;;29.60;62.50;;;;;;4996430;28;20046;-81
2023/06/24 10:37:16;;;;;;;2.75;0.50;;;29.70;62.70;;;;;;4986849;28;20047;-81
2023/06/24 10:39:59;;;;;;;0.15;0.00;;;29.60;63.50;;;;;;5004888;28;20133;-81
2023/06/24 10:42:42;;;;;;;0.30;0.10;;;29.70;60.50;;;;;;4985306;28;20054;-82
2023/06/24 10:45:19;;;;;;;0.10;0.03;;;29.90;63.90;;;;;;5002680;28;20039;-82
2023/06/24 10:47:50;;;;;;;0.00;0.00;;;29.80;61.00;;;;;;4987171;28;20525;-82
2023/06/24 10:50:19;;;;;;;1.38;0.28;;;29.80;63.40;;;;;;5000912;28;20042;-82
2023/06/24 10:52:55;;;;;;;0.00;0.00;;;30.00;66.90;;;;;;4997447;28;20050;-82
2023/06/24 10:55:27;;;;;;;0.45;0.13;;;30.20;63.60;;;;;;4978490;28;20046;-82
2023/06/24 10:57:53;;;;;;;0.00;0.00;;;30.10;60.10;;;;;;4999313;28;20050;-82
2023/06/24 11:00:21;;;;;;;0.13;0.10;;;30.00;59.90;;;;;;5002330;28;20149;-82
2023/06/24 11:02:46;;;;;;;0.40;0.32;;;30.20;61.70;;;;;;4985212;28;20043;-82
2023/06/24 11:05:12;;;;;;;0.30;0.10;;;30.20;58.60;;;;;;4995959;28;20097;-82
2023/06/24 11:07:39;;;;;;;0.22;0.15;;;29.90;57.30;;;;;;4985713;28;20041;-82
2023/06/24 11:10:07;;;;;;;0.30;0.05;;;29.70;60.10;;;;;;4997733;28;20042;-82
2023/06/24 11:12:35;;;;;;;0.00;0.00;;;29.90;64.10;;;;;;5003621;28;20050;-82
2023/06/24 11:15:04;;;;;;;0.10;0.08;;;30.20;63.60;;;;;;5001635;28;20086;-82
2023/06/24 11:17:30;;;;;;;0.20;0.00;;;30.60;60.70;;;;;;5002829;28;20050;-82
2023/06/24 11:19:58;;;;;;;0.00;0.00;;;30.90;58.20;;;;;;5005486;28;20058;-82
2023/06/24 11:22:25;;;;;;;0.10;0.05;;;31.10;60.60;;;;;;5015764;28;20091;-79
2023/06/24 11:24:51;;;;;;;0.40;0.08;;;31.20;56.50;;;;;;4993744;28;20042;-81
2023/06/24 11:27:28;;;;;;;0.10;0.10;;;31.10;57.20;;;;;;4999269;28;20067;-80
2023/06/24 11:29:55;;;;;;;0.03;0.00;;;31.10;58.70;;;;;;4997327;28;20555;-80
2023/06/24 11:32:22;;;;;;;0.10;0.10;;;31.30;60.30;;;;;;5012309;28;20052;-80
2023/06/24 11:34:48;;;;;;;0.32;0.20;;;31.50;60.10;;;;;;4994803;28;20105;-81
2023/06/24 11:37:18;;;;;;;0.38;0.22;;;31.80;58.80;;;;;;4986500;28;20129;-82
2023/06/24 11:40:07;;;;;;;0.20;0.10;;;31.80;55.20;;;;;;4980644;28;20045;-82
2023/06/24 11:42:36;;;;;;;0.10;0.00;;;31.60;56.80;;;;;;4977019;28;20564;-83
2023/06/24 11:45:10;;;;;;;0.10;0.00;;;31.70;57.90;;;;;;4998391;28;20076;-82
2023/06/24 11:47:37;;;;;;;0.40;0.00;;;31.90;55.20;;;;;;4994501;28;20077;-82
2023/06/24 11:50:05;;;;;;;0.10;0.00;;;32.10;60.60;;;;;;5000270;28;20041;-82
2023/06/24 11:52:51;;;;;;;0.00;0.00;;;32.40;59.30;;;;;;4995071;28;20037;-82
2023/06/24 11:55:25;;;;;;;0.25;0.10;;;32.60;54.90;;;;;;5007676;28;20139;-81
2023/06/24 11:57:55;;;;;;;0.10;0.10;;;32.80;55.80;;;;;;5004025;28;20038;-81
2023/06/24 12:00:44;;;;;;;0.10;0.00;;;32.90;52.90;;;;;;4999847;28;20068;-81
2023/06/24 12:03:11;;;;;;;0.00;0.00;;;32.90;55.70;;;;;;5023124;28;20037;-81
2023/06/24 12:05:40;;;;;;;0.00;0.00;;;33.20;53.70;;;;;;5025377;28;20048;-81
2023/06/24 12:08:08;;;;;;;0.10;0.10;;;33.20;53.30;;;;;;5022428;28;20057;-81
2023/06/24 12:10:35;;;;;;;0.10;0.00;;;33.30;55.40;;;;;;5017093;28;20698;-81
2023/06/24 12:13:03;;;;;;;0.10;0.10;;;32.90;55.60;;;;;;5016936;28;20069;-80
2023/06/24 12:15:29;;;;;;;0.45;0.10;;;32.40;53.50;;;;;;4991933;28;20018;-80
2023/06/24 12:17:55;;;;;;;0.10;0.10;;;31.90;55.10;;;;;;5000621;28;20048;-80
2023/06/24 12:20:22;;;;;;;0.10;0.00;;;31.80;58.00;;;;;;4998693;28;20062;-78
2023/06/24 12:22:48;;;;;;;0.03;0.00;;;31.70;55.60;;;;;;5010661;28;20050;-79
2023/06/24 12:25:15;;;;;;;0.05;0.03;;;31.80;53.60;;;;;;4990329;28;20042;-78
2023/06/24 12:27:42;;;;;;;0.70;0.10;;;32.00;54.40;;;;;;5009809;28;20041;-80
2023/06/24 12:30:09;;;;;;;0.15;0.05;;;32.10;56.50;;;;;;5005260;28;20113;-79
2023/06/24 12:32:36;;;;;;;0.03;0.00;;;32.10;56.80;;;;;;4993031;28;20089;-79
2023/06/24 12:35:03;;;;;;;0.03;0.03;;;32.20;56.90;;;;;;5010852;28;20125;-81
2023/06/24 12:37:32;;;;;;;0.10;0.03;;;32.20;56.80;;;;;;5007894;28;20038;-79
2023/06/24 12:39:57;;;;;;;0.38;0.00;;;32.10;55.50;;;;;;4995215;28;20410;-80
2023/06/24 12:42:23;;;;;;;0.05;0.05;;;32.10;57.30;;;;;;5012756;28;20046;-80
2023/06/24 12:44:49;;;;;;;0.00;0.00;;;32.00;55.30;;;;;;5004075;28;20140;-80
2023/06/24 12:47:15;;;;;;;0.28;0.10;;;32.20;58.30;;;;;;5013780;28;20046;-80
2023/06/24 12:49:40;;;;;;;0.15;0.05;;;32.20;57.20;;;;;;5017380;28;20305;-80
2023/06/24 12:52:06;;;;;;;0.63;0.20;;;32.10;58.70;;;;;;5002468;28;20045;-81
2023/06/24 12:54:32;;;;;;;0.10;0.00;;;31.90;58.00;;;;;;5004917;28;20053;-81